Time;durP1;ratioP1;P1;durP2;ratioP2;P2;SDS_P1;SDS_P2;PMS_P1;PMS_P2;Temp;Humidity;BMP_temperature;BMP_pressure;BME280_temperature;BME280_humidity;BME280_pressure;Samples;Min_cycle;Max_cycle;Signal;HPM_P1;HPM_P2
2023/12/30 00:00:55;;;;;;;18.57;2.60;;;8.60;99.90;;;;;;5085796;27;20211;-61
2023/12/30 00:03:24;;;;;;;11.67;2.90;;;8.50;99.90;;;;;;5086063;28;20627;-61
2023/12/30 00:05:52;;;;;;;11.73;2.80;;;8.50;99.90;;;;;;5084863;28;20316;-61
2023/12/30 00:08:21;;;;;;;13.87;3.10;;;8.50;99.90;;;;;;5081979;28;20224;-61
2023/12/30 00:10:49;;;;;;;15.70;3.03;;;8.50;99.90;;;;;;5084388;28;20275;-61
2023/12/30 00:13:17;;;;;;;13.03;2.73;;;8.50;99.90;;;;;;5083208;28;21209;-61
2023/12/30 00:15:46;;;;;;;14.37;2.63;;;8.40;99.90;;;;;;5083803;28;20215;-61
2023/12/30 00:18:15;;;;;;;18.33;2.50;;;8.40;99.90;;;;;;5085148;28;20219;-61
2023/12/30 00:20:45;;;;;;;9.60;2.73;;;8.40;99.90;;;;;;5086147;27;20238;-61
2023/12/30 00:23:13;;;;;;;16.23;2.70;;;8.40;99.90;;;;;;5082623;28;20600;-61
2023/12/30 00:25:44;;;;;;;14.97;2.90;;;8.40;99.90;;;;;;5086169;28;20234;-61
2023/12/30 00:28:12;;;;;;;10.57;2.80;;;8.30;99.90;;;;;;5080415;28;20219;-61
2023/12/30 00:30:40;;;;;;;16.53;2.97;;;8.30;99.90;;;;;;5085319;27;20226;-61
2023/12/30 00:33:12;;;;;;;16.37;2.73;;;8.20;99.90;;;;;;5083217;28;20280;-61
2023/12/30 00:35:40;;;;;;;15.53;2.80;;;8.20;99.90;;;;;;5084775;28;20276;-61
2023/12/30 00:38:10;;;;;;;13.17;2.63;;;8.10;99.90;;;;;;5085595;28;20203;-61
2023/12/30 00:40:39;;;;;;;15.67;2.83;;;8.10;99.90;;;;;;5084523;28;20768;-61
2023/12/30 00:43:07;;;;;;;14.10;2.67;;;8.10;99.90;;;;;;5079299;28;20230;-61
2023/12/30 00:45:36;;;;;;;10.37;2.70;;;8.10;99.90;;;;;;5086121;28;20223;-61
2023/12/30 00:48:04;;;;;;;14.80;3.00;;;8.10;99.90;;;;;;5082659;28;20215;-61
2023/12/30 00:50:32;;;;;;;17.33;3.47;;;8.10;99.90;;;;;;5081392;28;20817;-61
2023/12/30 00:53:01;;;;;;;18.07;3.63;;;8.10;99.90;;;;;;5083152;28;20187;-60
2023/12/30 00:55:30;;;;;;;15.97;2.53;;;8.00;99.90;;;;;;5081887;28;20196;-61
2023/12/30 00:57:59;;;;;;;15.63;3.00;;;8.00;99.90;;;;;;5082661;28;20317;-61
2023/12/30 01:00:27;;;;;;;15.17;2.40;;;8.00;99.90;;;;;;5086026;28;20230;-61
2023/12/30 01:02:55;;;;;;;22.00;2.50;;;8.00;99.90;;;;;;5081432;28;20760;-61
2023/12/30 01:05:24;;;;;;;14.67;2.77;;;8.00;99.90;;;;;;5081248;28;20219;-61
2023/12/30 01:07:52;;;;;;;13.93;2.83;;;8.10;99.90;;;;;;5083195;28;20191;-61
2023/12/30 01:10:20;;;;;;;12.27;2.60;;;8.10;99.90;;;;;;5080561;28;20567;-61
2023/12/30 01:12:50;;;;;;;11.83;2.70;;;8.10;99.90;;;;;;5080426;27;20226;-61
2023/12/30 01:15:19;;;;;;;17.30;2.90;;;8.00;99.90;;;;;;5082983;28;20216;-61
2023/12/30 01:17:47;;;;;;;19.17;3.13;;;8.00;99.90;;;;;;5083757;28;20223;-61
2023/12/30 01:20:15;;;;;;;16.93;2.80;;;8.00;99.90;;;;;;5084981;28;20546;-61
2023/12/30 01:22:44;;;;;;;20.53;2.80;;;8.00;99.90;;;;;;5079744;28;20557;-61
2023/12/30 01:25:12;;;;;;;17.30;2.80;;;7.90;99.90;;;;;;5082309;28;20238;-61
2023/12/30 01:27:40;;;;;;;19.17;2.77;;;7.90;99.90;;;;;;5081539;28;20277;-61
2023/12/30 01:30:10;;;;;;;9.37;3.17;;;7.90;99.90;;;;;;5078362;28;20220;-61
2023/12/30 01:32:39;;;;;;;14.80;2.73;;;7.90;99.90;;;;;;5081387;28;20223;-61
2023/12/30 01:35:08;;;;;;;21.60;3.13;;;7.80;99.90;;;;;;5081667;28;20195;-61
2023/12/30 01:37:36;;;;;;;8.77;2.60;;;7.80;99.90;;;;;;5081759;28;20593;-61
2023/12/30 01:40:05;;;;;;;18.23;3.03;;;7.70;99.90;;;;;;5082155;28;20221;-61
2023/12/30 01:42:33;;;;;;;19.20;3.80;;;7.70;99.90;;;;;;5083792;28;20223;-61
2023/12/30 01:45:02;;;;;;;14.93;2.70;;;7.80;99.90;;;;;;5078447;28;20226;-61
2023/12/30 01:47:32;;;;;;;18.27;3.53;;;7.80;99.90;;;;;;5081047;28;20228;-61
2023/12/30 01:50:00;;;;;;;13.83;3.20;;;7.90;99.90;;;;;;5096432;28;20222;-60
2023/12/30 01:52:31;;;;;;;17.10;3.00;;;7.90;99.90;;;;;;5081711;28;20191;-61
2023/12/30 01:54:59;;;;;;;16.67;3.23;;;7.90;99.90;;;;;;5078415;28;20218;-61
2023/12/30 01:57:28;;;;;;;22.63;3.10;;;7.90;99.90;;;;;;5083076;28;20724;-61
2023/12/30 01:59:57;;;;;;;16.43;3.10;;;7.90;99.90;;;;;;5082262;28;20211;-61
2023/12/30 02:02:26;;;;;;;21.83;3.97;;;7.90;99.90;;;;;;5079259;28;20567;-61
2023/12/30 02:04:56;;;;;;;20.73;3.60;;;8.00;99.90;;;;;;5081886;28;20597;-61
2023/12/30 02:07:25;;;;;;;16.13;3.90;;;8.00;99.90;;;;;;5080482;28;20219;-61
2023/12/30 02:09:53;;;;;;;21.37;3.63;;;7.90;99.90;;;;;;5082005;28;20231;-61
2023/12/30 02:12:22;;;;;;;15.47;3.17;;;8.00;99.90;;;;;;5080767;28;20219;-61
2023/12/30 02:14:50;;;;;;;24.67;3.43;;;8.00;99.90;;;;;;5081317;28;20212;-61
2023/12/30 02:17:18;;;;;;;21.43;3.77;;;8.00;99.90;;;;;;5079969;28;20196;-61
2023/12/30 02:19:48;;;;;;;25.30;4.63;;;7.90;99.90;;;;;;5084886;28;20207;-61
2023/12/30 02:22:18;;;;;;;20.03;3.43;;;7.90;99.90;;;;;;5080453;28;20238;-61
2023/12/30 02:24:48;;;;;;;18.77;3.33;;;7.90;99.90;;;;;;5082307;28;20788;-61
2023/12/30 02:27:16;;;;;;;17.53;3.83;;;7.80;99.90;;;;;;5078479;28;21138;-61
2023/12/30 02:29:44;;;;;;;19.77;3.63;;;7.80;99.90;;;;;;5082029;28;20883;-61
2023/12/30 02:32:12;;;;;;;25.20;4.30;;;7.80;99.90;;;;;;5078872;28;20190;-61
2023/12/30 02:34:41;;;;;;;21.70;3.40;;;7.80;99.90;;;;;;5079859;28;20253;-61
2023/12/30 02:37:09;;;;;;;14.10;3.27;;;7.90;99.90;;;;;;5080588;28;20227;-61
2023/12/30 02:39:37;;;;;;;18.10;3.37;;;7.90;99.90;;;;;;5077809;28;20601;-61
2023/12/30 02:42:07;;;;;;;16.93;3.10;;;7.80;99.90;;;;;;5079055;28;20351;-61
2023/12/30 02:44:36;;;;;;;17.50;3.23;;;7.80;99.90;;;;;;5079409;28;20223;-61
2023/12/30 02:47:04;;;;;;;14.10;2.83;;;7.90;99.90;;;;;;5081974;28;20620;-61
2023/12/30 02:49:34;;;;;;;16.27;3.17;;;7.90;99.90;;;;;;5082390;28;20202;-61
2023/12/30 02:52:02;;;;;;;17.03;3.93;;;7.90;99.90;;;;;;5080342;28;20315;-61
2023/12/30 02:54:30;;;;;;;23.33;3.60;;;7.90;99.90;;;;;;5081615;28;20220;-61
2023/12/30 02:57:00;;;;;;;13.67;3.20;;;7.90;99.90;;;;;;5084578;28;20223;-61
2023/12/30 02:59:30;;;;;;;18.13;3.40;;;7.90;99.90;;;;;;5081225;28;20237;-61
2023/12/30 03:01:58;;;;;;;13.10;3.27;;;7.90;99.90;;;;;;5080224;28;20200;-61
2023/12/30 03:04:26;;;;;;;26.30;4.03;;;7.90;99.90;;;;;;5080822;28;20235;-61
2023/12/30 03:06:55;;;;;;;15.40;3.40;;;7.90;99.90;;;;;;5086017;27;20272;-61
2023/12/30 03:09:23;;;;;;;22.37;3.40;;;7.80;99.90;;;;;;5082580;28;20216;-61
2023/12/30 03:11:51;;;;;;;24.67;3.70;;;7.80;99.90;;;;;;5085343;28;20221;-61
2023/12/30 03:14:20;;;;;;;18.00;3.57;;;7.80;99.90;;;;;;5082306;28;20281;-61
2023/12/30 03:16:49;;;;;;;17.70;3.33;;;7.80;99.90;;;;;;5087149;28;20195;-61
2023/12/30 03:19:18;;;;;;;17.43;3.13;;;7.90;99.90;;;;;;5082053;28;20688;-61
2023/12/30 03:21:47;;;;;;;14.10;3.23;;;7.90;99.90;;;;;;5083977;28;20231;-61
2023/12/30 03:24:15;;;;;;;18.20;3.43;;;7.90;99.90;;;;;;5080142;28;20215;-61
2023/12/30 03:26:43;;;;;;;15.53;2.80;;;7.90;99.90;;;;;;5084922;28;20239;-61
2023/12/30 03:29:12;;;;;;;21.13;3.57;;;7.90;99.90;;;;;;5085680;28;20558;-60
2023/12/30 03:31:41;;;;;;;11.90;3.47;;;7.80;99.90;;;;;;5081257;28;20196;-61
2023/12/30 03:34:11;;;;;;;24.93;3.27;;;7.70;99.90;;;;;;5085762;28;20418;-61
2023/12/30 03:36:39;;;;;;;14.50;3.00;;;7.70;99.90;;;;;;5081416;28;20239;-61
2023/12/30 03:39:07;;;;;;;17.33;3.07;;;7.70;99.90;;;;;;5087005;28;20219;-61
2023/12/30 03:41:36;;;;;;;16.77;2.80;;;7.60;99.90;;;;;;5086216;28;20227;-61
2023/12/30 03:44:04;;;;;;;20.13;3.00;;;7.60;99.90;;;;;;5082233;28;20245;-61
2023/12/30 03:46:32;;;;;;;21.47;3.73;;;7.70;99.90;;;;;;5084256;28;20345;-61
2023/12/30 03:49:01;;;;;;;19.03;3.50;;;7.70;99.90;;;;;;5087290;28;20243;-61
2023/12/30 03:51:30;;;;;;;16.47;3.23;;;7.80;99.90;;;;;;5083218;28;20307;-61
2023/12/30 03:53:59;;;;;;;13.53;3.10;;;7.90;99.90;;;;;;5083557;28;20579;-61
2023/12/30 03:56:27;;;;;;;19.13;3.00;;;7.80;99.90;;;;;;5081089;28;20619;-61
2023/12/30 03:58:59;;;;;;;21.40;3.00;;;7.90;99.90;;;;;;5082844;28;20196;-61
2023/12/30 04:01:27;;;;;;;17.47;3.77;;;7.80;99.90;;;;;;5086385;28;20566;-61
2023/12/30 04:03:56;;;;;;;19.77;3.50;;;7.80;99.90;;;;;;5082162;28;20669;-61
2023/12/30 04:06:24;;;;;;;12.50;2.67;;;7.80;99.90;;;;;;5085729;28;20584;-61
2023/12/30 04:08:55;;;;;;;10.83;2.57;;;7.80;99.90;;;;;;5085745;28;20219;-61
2023/12/30 04:11:23;;;;;;;18.07;3.80;;;7.70;99.90;;;;;;5082710;27;20223;-61
2023/12/30 04:13:51;;;;;;;16.20;3.17;;;7.70;99.90;;;;;;5082294;28;20485;-61
2023/12/30 04:16:19;;;;;;;17.63;2.90;;;7.70;99.90;;;;;;5083199;28;21066;-61
2023/12/30 04:18:48;;;;;;;22.10;3.47;;;7.60;99.90;;;;;;5085041;28;20227;-61
2023/12/30 04:21:16;;;;;;;17.10;3.30;;;7.60;99.90;;;;;;5085509;28;20234;-61
2023/12/30 04:23:44;;;;;;;21.73;2.87;;;7.50;99.90;;;;;;5084637;28;20226;-61
2023/12/30 04:26:14;;;;;;;12.73;3.40;;;7.40;99.90;;;;;;5085574;28;20212;-60
2023/12/30 04:28:42;;;;;;;25.63;3.37;;;7.40;99.90;;;;;;5079512;28;20249;-61
2023/12/30 04:31:10;;;;;;;23.33;3.13;;;7.30;99.90;;;;;;5081525;27;20243;-61
2023/12/30 04:33:39;;;;;;;15.57;2.93;;;7.30;99.90;;;;;;5086272;27;20239;-61
2023/12/30 04:36:08;;;;;;;14.63;3.10;;;7.30;99.90;;;;;;5084866;28;20257;-61
2023/12/30 04:38:37;;;;;;;10.83;2.67;;;7.20;99.90;;;;;;5081892;28;20228;-61
2023/12/30 04:41:05;;;;;;;14.47;3.83;;;7.10;99.90;;;;;;5081935;28;20196;-61
2023/12/30 04:43:35;;;;;;;16.07;3.57;;;7.10;99.90;;;;;;5090550;28;20183;-61
2023/12/30 04:46:03;;;;;;;19.37;3.07;;;7.00;99.90;;;;;;5083821;28;20220;-61
2023/12/30 04:48:32;;;;;;;19.40;3.20;;;7.00;99.90;;;;;;5087840;28;20301;-61
2023/12/30 04:51:00;;;;;;;14.80;2.97;;;6.90;99.90;;;;;;5081586;28;20218;-61
2023/12/30 04:53:29;;;;;;;13.07;3.40;;;6.90;99.90;;;;;;5083353;28;20256;-61
2023/12/30 04:55:57;;;;;;;16.50;3.10;;;6.90;99.90;;;;;;5081082;28;20196;-61
2023/12/30 04:58:25;;;;;;;15.27;3.00;;;6.90;99.90;;;;;;5085292;28;20216;-61
2023/12/30 05:00:56;;;;;;;20.77;3.57;;;7.00;99.90;;;;;;5083373;28;20694;-61
2023/12/30 05:03:24;;;;;;;18.07;3.27;;;7.00;99.90;;;;;;5078503;28;20236;-61
2023/12/30 05:05:53;;;;;;;14.93;3.10;;;7.00;99.90;;;;;;5081976;28;20543;-61
2023/12/30 05:08:21;;;;;;;18.93;3.10;;;7.00;99.90;;;;;;5085751;28;20284;-61
2023/12/30 05:10:49;;;;;;;22.27;3.70;;;6.90;99.90;;;;;;5079568;28;20203;-61
2023/12/30 05:13:17;;;;;;;19.60;3.17;;;6.90;99.90;;;;;;5081684;28;20305;-61
2023/12/30 05:15:46;;;;;;;19.07;3.53;;;7.00;99.90;;;;;;5079405;28;20306;-61
2023/12/30 05:18:15;;;;;;;14.70;3.33;;;7.00;99.90;;;;;;5084778;28;20218;-61
2023/12/30 05:20:44;;;;;;;18.63;3.43;;;7.00;99.90;;;;;;5083482;28;20246;-61
2023/12/30 05:23:12;;;;;;;16.93;2.90;;;7.00;99.90;;;;;;5084331;28;20623;-61
2023/12/30 05:25:41;;;;;;;12.03;3.10;;;7.10;99.90;;;;;;5084866;28;20275;-61
2023/12/30 05:28:09;;;;;;;13.47;3.17;;;7.10;99.90;;;;;;5073649;28;20243;-61
2023/12/30 05:30:37;;;;;;;14.43;3.30;;;7.10;99.90;;;;;;5080037;28;20234;-61
2023/12/30 05:33:06;;;;;;;18.70;3.90;;;7.20;99.90;;;;;;5081556;27;20656;-61
2023/12/30 05:35:37;;;;;;;7.43;3.20;;;7.20;99.90;;;;;;5084278;28;20290;-61
2023/12/30 05:38:05;;;;;;;20.33;3.93;;;7.30;99.90;;;;;;5083514;28;20195;-60
2023/12/30 05:40:33;;;;;;;24.47;3.67;;;7.40;99.90;;;;;;5082450;28;20679;-61
2023/12/30 05:43:02;;;;;;;23.23;4.00;;;7.40;99.90;;;;;;5081560;28;20281;-61
2023/12/30 05:45:31;;;;;;;27.83;4.13;;;7.30;99.90;;;;;;5086061;28;20554;-61
2023/12/30 05:47:59;;;;;;;22.53;4.60;;;7.40;99.90;;;;;;5085724;28;20219;-61
2023/12/30 05:50:28;;;;;;;21.60;4.27;;;7.50;99.90;;;;;;5084159;28;20241;-61
2023/12/30 05:52:57;;;;;;;19.13;4.07;;;7.50;99.90;;;;;;5083309;28;20195;-61
2023/12/30 05:55:26;;;;;;;16.33;4.50;;;7.50;99.90;;;;;;5080607;28;20594;-62
2023/12/30 05:57:54;;;;;;;19.30;4.00;;;7.50;99.90;;;;;;5083697;28;20238;-61
2023/12/30 06:00:22;;;;;;;17.40;3.63;;;7.60;99.90;;;;;;5081233;28;20612;-61
2023/12/30 06:02:52;;;;;;;20.83;4.33;;;7.60;99.90;;;;;;5082504;28;20220;-61
2023/12/30 06:05:20;;;;;;;21.60;4.03;;;7.60;99.90;;;;;;5078932;27;20650;-61
2023/12/30 06:07:48;;;;;;;19.23;4.23;;;7.60;99.90;;;;;;5083306;28;20212;-61
2023/12/30 06:10:18;;;;;;;22.23;4.77;;;7.70;99.90;;;;;;5082984;28;20214;-61
2023/12/30 06:12:46;;;;;;;26.70;4.50;;;7.70;99.90;;;;;;5078522;28;20247;-61
2023/12/30 06:15:15;;;;;;;20.87;3.73;;;7.70;99.90;;;;;;5082138;28;20881;-61
2023/12/30 06:17:43;;;;;;;19.43;4.73;;;7.70;99.90;;;;;;5082718;28;20937;-61
2023/12/30 06:20:12;;;;;;;18.03;4.53;;;7.70;99.90;;;;;;5084442;27;20213;-61
2023/12/30 06:22:40;;;;;;;18.50;4.20;;;7.60;99.90;;;;;;5079460;28;20200;-61
2023/12/30 06:25:08;;;;;;;19.37;3.73;;;7.60;99.90;;;;;;5082110;28;20800;-61
2023/12/30 06:27:38;;;;;;;16.70;3.63;;;7.70;99.90;;;;;;5081150;28;20277;-61
2023/12/30 06:30:07;;;;;;;21.20;4.17;;;7.70;99.90;;;;;;5076127;27;20226;-61
2023/12/30 06:32:36;;;;;;;18.30;3.97;;;7.70;99.90;;;;;;5080415;27;20674;-61
2023/12/30 06:35:05;;;;;;;31.03;4.17;;;7.70;99.90;;;;;;5079600;28;20198;-61
2023/12/30 06:37:33;;;;;;;17.60;3.57;;;7.70;99.90;;;;;;5082570;28;20199;-61
2023/12/30 06:40:02;;;;;;;20.27;4.27;;;7.70;99.90;;;;;;5082010;27;20219;-61
2023/12/30 06:42:31;;;;;;;19.70;4.23;;;7.70;99.90;;;;;;5087291;28;20652;-61
2023/12/30 06:45:01;;;;;;;21.77;4.07;;;7.70;99.90;;;;;;5088483;28;20215;-62
2023/12/30 06:47:29;;;;;;;18.00;3.70;;;7.70;99.90;;;;;;5082703;28;20231;-61
2023/12/30 06:49:57;;;;;;;18.50;3.57;;;7.70;99.90;;;;;;5087657;28;20650;-62
2023/12/30 06:52:25;;;;;;;16.43;3.67;;;7.70;99.90;;;;;;5086245;28;20570;-61
2023/12/30 06:54:54;;;;;;;25.30;3.90;;;7.70;99.90;;;;;;5082765;28;20236;-61
2023/12/30 06:57:37;;;;;;;13.17;3.47;;;7.70;99.90;;;;;;5084553;28;20272;-61
2023/12/30 07:00:08;;;;;;;14.30;3.53;;;7.60;99.90;;;;;;5086550;28;20705;-61
2023/12/30 07:02:37;;;;;;;20.30;4.27;;;7.60;99.90;;;;;;5082625;28;20302;-61
2023/12/30 07:05:06;;;;;;;14.77;4.10;;;7.60;99.90;;;;;;5079349;28;20650;-60
2023/12/30 07:07:35;;;;;;;19.97;4.33;;;7.50;99.90;;;;;;5087868;28;20599;-61
2023/12/30 07:10:05;;;;;;;18.60;4.47;;;7.50;99.90;;;;;;5088054;28;20216;-61
2023/12/30 07:12:34;;;;;;;34.03;5.33;;;7.50;99.90;;;;;;5086454;28;20220;-61
2023/12/30 07:15:02;;;;;;;20.57;4.87;;;7.40;99.90;;;;;;5083938;28;20243;-61
2023/12/30 07:17:32;;;;;;;22.63;5.40;;;7.40;99.90;;;;;;5088529;28;20622;-60
2023/12/30 07:20:01;;;;;;;29.90;6.80;;;7.30;99.90;;;;;;5083122;28;20211;-60
2023/12/30 07:22:30;;;;;;;28.37;6.77;;;7.30;99.90;;;;;;5085501;28;20248;-61
2023/12/30 07:24:59;;;;;;;19.07;5.53;;;7.30;99.90;;;;;;5084074;28;20219;-61
2023/12/30 07:27:27;;;;;;;27.90;6.77;;;7.30;99.90;;;;;;5084533;28;20254;-61
2023/12/30 07:29:57;;;;;;;20.07;6.57;;;7.20;99.90;;;;;;5083051;28;20629;-61
2023/12/30 07:32:25;;;;;;;18.13;6.07;;;7.20;99.90;;;;;;5084854;28;20322;-61
2023/12/30 07:34:55;;;;;;;30.90;7.13;;;7.10;99.90;;;;;;5087328;28;20188;-61
2023/12/30 07:37:24;;;;;;;20.13;6.80;;;7.10;99.90;;;;;;5083649;28;20306;-61
2023/12/30 07:39:53;;;;;;;30.57;7.23;;;7.10;99.90;;;;;;5086484;28;20219;-61
2023/12/30 07:42:21;;;;;;;30.77;8.30;;;7.10;99.90;;;;;;5085979;28;20215;-61
2023/12/30 07:44:52;;;;;;;25.73;7.87;;;7.10;99.90;;;;;;5084334;28;20223;-61
2023/12/30 07:47:21;;;;;;;26.67;8.13;;;7.10;99.90;;;;;;5084550;28;20254;-61
2023/12/30 07:49:49;;;;;;;27.00;8.20;;;7.20;99.90;;;;;;5083549;28;20219;-61
2023/12/30 07:52:19;;;;;;;26.93;8.30;;;7.20;99.90;;;;;;5084559;27;20220;-61
2023/12/30 07:54:47;;;;;;;30.10;8.67;;;7.20;99.90;;;;;;5084735;28;20320;-61
2023/12/30 07:57:16;;;;;;;23.60;7.70;;;7.20;99.90;;;;;;5085606;28;20227;-61
2023/12/30 07:59:44;;;;;;;21.00;7.93;;;7.20;99.90;;;;;;5086787;28;20230;-62
2023/12/30 08:02:13;;;;;;;21.83;8.10;;;7.20;99.90;;;;;;5083265;28;20291;-61
2023/12/30 08:04:43;;;;;;;24.23;8.60;;;7.10;99.90;;;;;;5079323;28;20231;-61
2023/12/30 08:07:12;;;;;;;30.50;7.80;;;7.10;99.90;;;;;;5085213;28;20232;-61
2023/12/30 08:09:41;;;;;;;28.10;7.83;;;7.10;99.90;;;;;;5083511;28;20220;-61
2023/12/30 08:12:10;;;;;;;30.83;8.27;;;7.20;99.90;;;;;;5082545;28;20225;-61
2023/12/30 08:14:38;;;;;;;21.30;7.87;;;7.20;99.90;;;;;;5082779;28;20258;-61
2023/12/30 08:17:06;;;;;;;30.33;8.23;;;7.20;99.90;;;;;;5085109;28;20207;-60
2023/12/30 08:19:34;;;;;;;23.43;7.17;;;7.30;99.90;;;;;;5084328;28;20198;-61
2023/12/30 08:22:03;;;;;;;25.40;7.70;;;7.30;99.90;;;;;;5086733;28;20681;-61
2023/12/30 08:24:31;;;;;;;32.63;7.00;;;7.30;99.90;;;;;;5080868;28;20250;-61
2023/12/30 08:27:01;;;;;;;24.37;7.73;;;7.30;99.90;;;;;;5084117;28;20227;-61
2023/12/30 08:29:29;;;;;;;21.83;6.63;;;7.30;99.90;;;;;;5081821;28;20233;-61
2023/12/30 08:31:57;;;;;;;21.40;6.60;;;7.30;99.90;;;;;;5080413;28;20198;-61
2023/12/30 08:34:27;;;;;;;26.03;6.73;;;7.30;99.90;;;;;;4964799;28;20875;-61
2023/12/30 08:36:56;;;;;;;26.93;6.50;;;7.40;99.90;;;;;;5042133;28;20215;-61
2023/12/30 08:39:25;;;;;;;20.20;6.17;;;7.40;99.90;;;;;;5013902;28;20219;-61
2023/12/30 08:41:53;;;;;;;20.17;6.50;;;7.40;99.90;;;;;;5018224;28;20223;-61
2023/12/30 08:44:23;;;;;;;24.77;7.27;;;7.40;99.90;;;;;;5082371;28;20225;-61
2023/12/30 08:46:51;;;;;;;24.70;5.67;;;7.50;99.90;;;;;;5083133;28;20285;-62
2023/12/30 08:49:19;;;;;;;19.70;6.27;;;7.50;99.90;;;;;;5082602;28;20215;-61
2023/12/30 08:51:48;;;;;;;22.57;6.27;;;7.50;99.90;;;;;;5082946;28;20220;-61
2023/12/30 08:54:16;;;;;;;20.10;5.80;;;7.50;99.90;;;;;;5083308;28;20219;-61
2023/12/30 08:56:45;;;;;;;20.30;6.27;;;7.60;99.90;;;;;;5080605;28;20620;-61
2023/12/30 08:59:13;;;;;;;23.73;5.90;;;7.60;99.90;;;;;;5084488;28;20194;-61
2023/12/30 09:01:43;;;;;;;18.47;5.90;;;7.70;99.90;;;;;;5083771;28;20721;-61
2023/12/30 09:04:12;;;;;;;22.50;5.93;;;7.70;99.90;;;;;;5079826;28;20238;-61
2023/12/30 09:06:40;;;;;;;21.63;5.50;;;7.80;99.90;;;;;;5082126;27;20216;-61
2023/12/30 09:09:09;;;;;;;17.83;5.73;;;7.90;99.90;;;;;;5081205;28;20690;-61
2023/12/30 09:11:38;;;;;;;28.03;6.63;;;7.90;99.90;;;;;;5080435;28;20610;-61
2023/12/30 09:14:07;;;;;;;18.07;5.30;;;7.90;99.90;;;;;;5082099;28;20248;-60
2023/12/30 09:16:35;;;;;;;19.17;5.07;;;8.00;99.90;;;;;;5081972;28;20211;-61
2023/12/30 09:19:05;;;;;;;21.33;5.93;;;8.10;99.90;;;;;;5084744;28;20617;-61
2023/12/30 09:21:33;;;;;;;19.63;5.13;;;8.10;99.90;;;;;;5082982;28;20269;-61
2023/12/30 09:24:02;;;;;;;22.30;4.97;;;8.10;99.90;;;;;;5085337;28;20228;-61
2023/12/30 09:26:30;;;;;;;21.40;5.33;;;8.10;99.90;;;;;;5081827;28;20223;-61
2023/12/30 09:28:59;;;;;;;25.37;5.23;;;8.10;99.90;;;;;;5087294;28;20654;-61
2023/12/30 09:31:27;;;;;;;27.20;4.87;;;8.10;99.90;;;;;;5085566;28;20597;-61
2023/12/30 09:33:55;;;;;;;21.07;4.70;;;8.20;99.90;;;;;;5077894;28;20219;-61
2023/12/30 09:36:25;;;;;;;13.20;4.83;;;8.30;99.90;;;;;;5081802;28;20235;-61
2023/12/30 09:38:53;;;;;;;15.13;4.70;;;8.50;99.90;;;;;;5079226;28;20226;-61
2023/12/30 09:41:25;;;;;;;21.50;5.37;;;8.60;99.90;;;;;;5080186;28;20227;-61
2023/12/30 09:43:54;;;;;;;14.73;4.50;;;8.70;99.90;;;;;;5081645;28;20198;-61
2023/12/30 09:46:24;;;;;;;12.40;4.37;;;8.80;99.90;;;;;;5079701;28;20698;-61
2023/12/30 09:48:53;;;;;;;19.60;5.10;;;8.80;99.90;;;;;;5083126;28;20219;-61
2023/12/30 09:51:22;;;;;;;15.33;4.13;;;8.80;99.90;;;;;;5077167;28;20247;-61
2023/12/30 09:53:52;;;;;;;19.83;4.70;;;8.80;99.90;;;;;;5082886;28;20305;-61
2023/12/30 09:56:20;;;;;;;15.53;4.43;;;8.70;99.90;;;;;;5083999;28;20693;-61
2023/12/30 09:58:50;;;;;;;15.33;4.10;;;8.70;99.90;;;;;;5082288;28;20297;-61
2023/12/30 10:01:19;;;;;;;17.03;4.30;;;8.80;99.90;;;;;;5081692;28;20222;-61
2023/12/30 10:03:47;;;;;;;19.00;4.60;;;8.80;99.90;;;;;;5082257;28;20235;-61
2023/12/30 10:06:19;;;;;;;16.70;4.80;;;8.70;99.90;;;;;;5081093;28;20246;-61
2023/12/30 10:08:49;;;;;;;14.63;4.13;;;8.70;99.90;;;;;;5082331;28;20223;-61
2023/12/30 10:11:18;;;;;;;15.20;4.17;;;8.70;99.90;;;;;;5088126;28;20192;-61
2023/12/30 10:13:47;;;;;;;15.43;4.40;;;8.70;99.90;;;;;;5080796;28;20188;-61
2023/12/30 10:16:17;;;;;;;19.93;4.90;;;8.70;99.90;;;;;;5082384;28;20223;-61
2023/12/30 10:18:46;;;;;;;18.97;4.97;;;8.80;99.90;;;;;;5087003;28;20227;-61
2023/12/30 10:21:18;;;;;;;10.23;4.17;;;8.80;99.90;;;;;;5082079;28;20298;-61
2023/12/30 10:23:51;;;;;;;19.10;4.20;;;8.80;99.90;;;;;;5082124;28;20211;-61
2023/12/30 10:26:22;;;;;;;11.70;3.77;;;8.80;99.90;;;;;;5085437;28;20181;-61
2023/12/30 10:28:50;;;;;;;15.83;4.77;;;8.90;99.90;;;;;;5081788;28;20200;-61
2023/12/30 10:31:18;;;;;;;11.97;3.57;;;8.90;99.90;;;;;;5083176;28;20215;-61
2023/12/30 10:33:49;;;;;;;13.53;4.40;;;8.90;99.90;;;;;;5081271;27;20310;-61
2023/12/30 10:36:18;;;;;;;16.23;4.50;;;9.00;99.90;;;;;;5079869;28;20218;-61
2023/12/30 10:38:47;;;;;;;21.17;4.70;;;9.10;99.90;;;;;;5080212;28;20223;-61
2023/12/30 10:41:15;;;;;;;16.47;3.90;;;9.10;99.90;;;;;;5082066;28;20196;-61
2023/12/30 10:43:45;;;;;;;15.30;4.20;;;9.10;99.90;;;;;;5080849;28;20207;-61
2023/12/30 10:46:14;;;;;;;16.27;4.30;;;9.10;99.90;;;;;;5080556;28;20230;-61
2023/12/30 10:48:52;;;;;;;14.80;4.10;;;9.20;99.90;;;;;;5082171;28;20246;-61
2023/12/30 10:51:24;;;;;;;10.57;4.17;;;9.30;99.90;;;;;;5083644;28;20230;-61
2023/12/30 10:54:02;;;;;;;16.30;4.20;;;9.40;99.90;;;;;;5081049;28;20223;-61
2023/12/30 10:56:31;;;;;;;14.80;4.03;;;9.40;99.90;;;;;;5081764;28;20653;-61
2023/12/30 10:59:06;;;;;;;15.50;3.73;;;9.50;99.90;;;;;;5081125;28;20195;-56
2023/12/30 11:01:34;;;;;;;16.50;3.43;;;9.60;99.90;;;;;;5083559;28;20240;-61
2023/12/30 11:04:11;;;;;;;16.30;4.07;;;9.60;99.90;;;;;;5082442;28;20227;-61
2023/12/30 11:06:46;;;;;;;12.30;3.90;;;9.50;99.90;;;;;;5081664;28;20752;-62
2023/12/30 11:09:14;;;;;;;14.43;3.87;;;9.50;99.90;;;;;;5083925;28;20237;-61
2023/12/30 11:11:50;;;;;;;16.83;4.33;;;9.50;99.90;;;;;;5081990;28;20703;-61
2023/12/30 11:14:21;;;;;;;13.53;3.80;;;9.60;99.90;;;;;;5082128;28;20195;-61
2023/12/30 11:16:51;;;;;;;17.80;3.63;;;9.60;99.90;;;;;;5085206;28;20326;-61
2023/12/30 11:19:27;;;;;;;13.87;3.87;;;9.70;99.90;;;;;;5084086;28;20219;-61
2023/12/30 11:21:56;;;;;;;10.80;4.00;;;9.60;99.90;;;;;;5080450;27;20303;-61
2023/12/30 11:24:27;;;;;;;16.93;3.43;;;9.70;99.90;;;;;;5101089;28;20215;-61
2023/12/30 11:26:56;;;;;;;21.20;4.23;;;9.70;99.90;;;;;;5086385;28;20577;-61
2023/12/30 11:29:27;;;;;;;10.97;3.43;;;9.60;99.90;;;;;;5085947;28;20301;-61
2023/12/30 11:31:58;;;;;;;17.00;3.63;;;9.60;99.90;;;;;;5083365;28;20188;-61
2023/12/30 11:34:27;;;;;;;12.27;2.97;;;9.70;99.90;;;;;;5082109;28;20324;-60
2023/12/30 11:36:59;;;;;;;13.03;3.53;;;9.70;99.90;;;;;;5080782;28;20212;-60
2023/12/30 11:39:30;;;;;;;12.40;3.57;;;9.80;99.90;;;;;;5086103;28;20223;-61
2023/12/30 11:41:58;;;;;;;13.33;3.50;;;9.90;99.90;;;;;;5090398;28;20234;-61
2023/12/30 11:44:29;;;;;;;11.97;3.00;;;9.90;99.90;;;;;;5085584;28;20247;-61
2023/12/30 11:46:57;;;;;;;9.37;3.13;;;10.00;99.90;;;;;;5083947;28;20256;-61
2023/12/30 11:49:26;;;;;;;10.93;2.90;;;10.10;99.90;;;;;;5082887;28;20226;-61
2023/12/30 11:52:03;;;;;;;9.57;3.17;;;10.00;99.90;;;;;;5086449;28;20555;-60
2023/12/30 11:54:32;;;;;;;14.53;3.90;;;10.10;99.90;;;;;;5082551;28;20218;-60
2023/12/30 11:57:00;;;;;;;11.27;3.37;;;10.20;99.90;;;;;;5083230;28;20637;-62
2023/12/30 11:59:30;;;;;;;9.37;3.47;;;10.40;99.90;;;;;;5085892;28;20229;-62
2023/12/30 12:02:08;;;;;;;12.63;3.30;;;10.40;99.90;;;;;;5084956;28;20687;-61
2023/12/30 12:04:36;;;;;;;12.50;3.00;;;10.50;99.90;;;;;;5081751;28;20243;-61
2023/12/30 12:07:07;;;;;;;4.00;2.60;;;10.60;99.90;;;;;;5081471;28;20219;-62
2023/12/30 12:09:37;;;;;;;12.83;2.53;;;10.50;99.90;;;;;;5083220;27;20583;-62
2023/12/30 12:12:08;;;;;;;9.83;2.77;;;10.40;99.90;;;;;;5082950;27;20222;-62
2023/12/30 12:14:39;;;;;;;6.77;2.73;;;10.40;99.90;;;;;;5083306;28;20234;-62
2023/12/30 12:17:09;;;;;;;7.50;2.67;;;10.40;99.90;;;;;;5085512;28;20200;-62
2023/12/30 12:19:40;;;;;;;10.13;2.70;;;10.30;99.90;;;;;;5090863;28;20215;-59
2023/12/30 12:22:09;;;;;;;10.47;2.80;;;10.40;99.90;;;;;;5084641;28;20681;-62
2023/12/30 12:24:38;;;;;;;10.83;3.10;;;10.40;99.90;;;;;;5083172;28;20216;-62
2023/12/30 12:27:07;;;;;;;7.80;3.13;;;10.40;99.90;;;;;;5080435;27;20220;-62
2023/12/30 12:29:46;;;;;;;8.03;3.10;;;10.30;99.90;;;;;;5083374;28;20211;-62
2023/12/30 12:32:19;;;;;;;7.67;2.77;;;10.20;99.90;;;;;;5082877;27;20306;-62
2023/12/30 12:34:49;;;;;;;11.83;3.13;;;10.20;99.90;;;;;;5083974;28;20192;-62
2023/12/30 12:37:19;;;;;;;9.70;2.67;;;10.20;99.90;;;;;;5078248;28;20613;-62
2023/12/30 12:39:48;;;;;;;11.17;3.10;;;10.30;99.90;;;;;;5078351;28;20219;-62
2023/12/30 12:42:18;;;;;;;13.33;2.50;;;10.20;99.90;;;;;;5077815;28;20212;-60
2023/12/30 12:44:59;;;;;;;10.30;2.60;;;10.10;99.90;;;;;;5081200;28;20212;-60
2023/12/30 12:47:30;;;;;;;10.83;3.03;;;10.20;99.90;;;;;;5079792;28;20563;-61
2023/12/30 12:50:00;;;;;;;13.50;2.63;;;10.30;99.90;;;;;;5084896;28;20191;-61
2023/12/30 12:52:30;;;;;;;8.00;3.03;;;10.40;99.90;;;;;;5080316;28;20638;-60
2023/12/30 12:54:59;;;;;;;15.77;3.63;;;10.50;99.90;;;;;;5085954;28;20298;-61